Date,TemperatureHighF,TemperatureAvgF,TemperatureLowF,DewpointHighF,DewpointAvgF,DewpointLowF,HumidityHigh,HumidityAvg,HumidityLow,PressureMaxIn,PressureMinIn,WindSpeedMaxMPH,WindSpeedAvgMPH,GustSpeedMaxMPH,PrecipitationSumIn
2013-1-1,37,34,26,32,26,14,89,71,60,29.92,29.75,28,8,28,0.17
2013-1-2,31,26,21,21,17,12,82,67,57,30.09,29.91,26,6,26,0.00
2013-1-3,27,22,18,20,15,11,86,74,55,30.15,30.04,23,4,23,0.00
2013-1-4,37,33,27,30,26,19,83,76,66,30.04,29.87,24,6,25,0.02
2013-1-5,40,33,24,30,26,20,89,75,59,30.31,29.89,23,5,29,0.05
2013-1-6,40,33,23,36,30,21,97,90,76,30.26,29.98,18,2,18,0.15
2013-1-7,41,34,25,35,30,23,96,86,75,30.45,30.00,17,3,17,0.10
2013-1-8,44,37,25,36,33,23,96,87,74,30.43,30.33,22,4,23,0.09
2013-1-9,45,37,27,42,35,26,98,90,81,30.44,30.05,25,3,25,0.00
2013-1-10,44,41,36,37,31,28,81,67,55,30.53,30.08,26,6,26,0.00
2013-1-11,43,38,28,38,32,25,94,80,70,30.53,30.26,15,2,15,0.07
2013-1-12,47,42,38,44,40,36,96,92,78,30.28,30.16,13,2,13,0.04
2013-1-13,51,46,42,50,46,41,98,96,94,30.21,30.07,15,3,17,0.00
2013-1-14,53,49,45,52,47,37,99,92,66,30.29,29.96,25,4,25,0.01
2013-1-15,45,41,38,40,38,36,96,90,78,30.32,30.23,10,1,12,0.16
2013-1-16,43,40,37,42,39,36,98,96,93,30.26,29.79,20,3,20,0.67
2013-1-17,42,38,34,36,34,26,96,86,73,30.10,29.88,17,4,17,0.01
2013-1-18,34,25,22,26,15,7,94,67,50,30.51,30.05,27,5,27,0.00
2013-1-19,44,38,21,41,32,12,90,80,62,30.48,29.99,34,8,36,0.23
2013-1-20,50,44,32,43,37,17,93,76,54,29.99,29.62,28,8,31,0.00
2013-1-21,32,29,26,27,17,11,94,63,46,30.14,29.79,24,4,30,0.00
2013-1-22,30,25,20,28,17,7,93,71,51,30.07,29.73,28,6,28,0.00
2013-1-23,20,16,13,10,3,0,67,57,51,30.16,30.06,34,8,39,0.00
2013-1-24,20,16,11,8,4,1,72,60,46,30.20,30.05,35,8,35,0.00
2013-1-25,26,21,15,16,9,3,72,62,50,30.32,30.07,34,5,34,0.00
2013-1-26,26,23,20,23,16,6,89,75,52,30.20,29.99,24,4,24,0.00
2013-1-27,29,24,19,15,12,9,71,60,48,30.48,30.20,30,6,30,0.00
2013-1-28,33,27,18,32,19,10,95,72,47,30.48,30.04,13,2,13,0.05
2013-1-29,40,36,33,38,35,32,97,95,92,30.25,30.02,9,1,11,0.34
2013-1-30,57,49,39,56,48,37,98,95,90,30.20,29.60,25,5,25,0.09
2013-1-31,59,48,33,57,43,21,96,83,58,29.63,29.11,33,6,38,0.45
2013-2-1,34,31,26,22,16,11,66,55,45,30.10,29.63,20,4,20,0.00
2013-2-2,31,27,24,25,15,9,86,61,44,30.29,30.09,20,3,20,0.00
2013-2-3,35,30,25,31,27,23,94,87,77,30.09,29.67,16,2,19,0.06
2013-2-4,31,28,25,27,18,13,90,67,52,29.97,29.70,31,9,31,0.03
2013-2-5,32,28,25,30,20,13,94,75,59,30.08,29.94,23,3,23,0.00
2013-2-6,38,34,30,33,28,18,96,81,59,30.29,29.92,23,3,23,0.04
2013-2-7,30,27,24,24,17,11,83,66,51,30.55,30.29,18,3,18,0.00
2013-2-8,36,33,30,33,29,23,96,86,77,30.53,29.47,46,8,46,0.43
2013-2-9,32,23,22,31,21,20,96,93,91,30.11,29.29,51,9,51,0.02
2013-2-10,32,26,22,27,23,19,95,90,82,30.42,30.11,16,1,17,0.04
2013-2-11,45,35,22,44,34,21,98,96,93,30.41,29.64,24,2,24,1.18
2013-2-12,42,38,35,40,34,31,98,86,74,29.91,29.62,14,3,16,0.08
2013-2-13,41,35,29,34,29,26,92,81,63,29.92,29.70,12,2,12,0.00
2013-2-14,40,34,28,35,30,25,97,86,65,30.07,29.72,14,2,14,0.25
2013-2-15,47,39,31,40,35,28,94,86,70,30.09,29.98,20,3,20,0.02
2013-2-16,41,37,31,37,34,29,97,90,81,29.99,29.67,25,3,25,0.00
2013-2-17,36,27,21,33,23,12,95,87,67,29.66,29.27,31,8,32,0.00
2013-2-18,32,26,20,17,14,11,73,61,47,30.18,29.63,31,7,32,0.06
2013-2-19,46,38,28,44,31,14,96,75,56,30.20,29.63,18,3,19,0.90
2013-2-20,42,35,28,41,27,16,96,75,55,29.81,29.57,21,4,21,0.03
2013-2-21,36,30,28,30,20,17,81,67,54,30.11,29.80,21,5,23,0.00
2013-2-22,38,36,34,30,28,26,79,73,66,30.40,30.11,21,3,21,0.00
2013-2-23,40,37,30,38,32,28,95,84,73,30.39,29.92,13,2,14,0.25
2013-2-24,43,39,34,42,38,33,97,96,95,29.92,29.60,25,5,29,1.69
2013-2-25,41,35,26,34,30,24,97,82,59,30.29,29.87,16,2,19,0.09
2013-2-26,45,35,24,36,29,22,97,79,52,30.39,30.19,15,2,15,0.00
2013-2-27,45,43,40,44,41,35,97,94,81,30.20,29.59,27,5,27,0.69
2013-2-28,43,40,36,41,38,35,98,95,87,29.69,29.53,10,1,11,0.00
2013-3-1,40,37,34,38,34,32,97,89,81,29.70,29.53,15,2,15,0.04
2013-3-2,46,38,33,39,34,31,96,85,69,29.70,29.65,12,2,12,0.02
2013-3-3,44,38,35,36,34,32,94,85,69,29.66,29.60,16,3,17,0.00
2013-3-4,42,36,33,33,30,27,94,79,60,29.71,29.59,25,7,26,0.01
2013-3-5,44,38,34,40,34,28,94,86,79,30.08,29.71,21,5,21,0.04
2013-3-6,41,39,37,37,35,34,95,88,79,30.12,29.99,35,8,36,0.05
2013-3-7,38,37,36,36,35,34,95,94,88,29.98,29.87,39,12,43,1.01
2013-3-8,41,37,35,36,34,33,96,91,72,30.08,29.85,39,9,39,0.93
2013-3-9,39,37,36,34,33,32,87,83,78,30.35,30.08,30,6,30,0.00
2013-3-10,42,38,35,35,33,32,88,81,74,30.43,30.34,15,3,15,0.00
2013-3-11,51,42,35,43,38,32,92,85,71,30.38,30.24,15,3,16,0.00
2013-3-12,55,50,43,53,47,41,97,91,82,30.25,29.80,26,7,28,0.26
2013-3-13,54,46,39,53,40,28,97,80,58,29.82,29.73,21,5,23,0.52
2013-3-14,42,36,27,32,25,15,88,65,49,29.83,29.73,26,6,28,0.00
2013-3-15,41,32,24,31,19,11,77,60,38,29.89,29.70,26,7,27,0.00
2013-3-16,41,35,29,30,22,18,77,60,41,29.91,29.70,31,4,31,0.00
2013-3-17,40,33,24,29,20,12,93,61,38,30.34,29.90,20,3,23,0.00
2013-3-18,37,31,24,28,17,10,91,58,45,30.49,30.31,13,3,13,0.00
2013-3-19,42,36,30,42,35,28,97,95,91,30.31,29.51,39,8,39,0.84
2013-3-20,42,35,29,31,27,23,94,74,52,29.87,29.64,27,7,34,0.00
2013-3-21,42,35,29,32,30,26,94,81,58,29.87,29.59,23,4,23,0.01
2013-3-22,40,34,30,34,30,26,96,86,69,29.77,29.59,24,3,26,0.46
2013-3-23,45,38,31,30,26,23,79,64,49,29.79,29.66,28,8,28,0.02
2013-3-24,50,38,28,32,28,25,88,67,46,29.86,29.78,23,5,25,0.00
2013-3-25,47,38,28,36,31,25,97,77,55,29.80,29.48,28,6,30,0.00
2013-3-26,50,40,35,34,30,25,86,68,42,29.79,29.48,25,6,29,0.01
2013-3-27,56,43,32,37,32,28,90,68,36,29.87,29.78,17,4,21,0.00
2013-3-28,49,42,38,40,36,31,94,79,55,30.05,29.86,19,4,19,0.08
2013-3-29,57,46,33,41,37,31,96,74,51,30.07,30.02,14,2,14,0.00
2013-3-30,58,45,38,40,36,31,90,71,42,30.14,30.06,12,2,14,0.00
2013-3-31,61,45,29,42,35,28,97,71,34,30.17,29.84,22,3,24,0.04
2013-4-1,60,49,39,50,43,23,97,81,51,29.84,29.60,28,8,28,0.20
2013-4-2,45,38,33,24,20,15,59,48,37,30.00,29.80,34,8,34,0.00
2013-4-3,49,40,33,26,21,18,62,48,32,30.17,29.98,29,9,32,0.00
2013-4-4,53,41,34,34,25,19,79,54,32,30.33,30.14,24,7,26,0.00
2013-4-5,50,44,40,44,38,28,92,81,57,30.14,29.69,23,4,23,0.04
2013-4-6,45,38,33,30,21,12,76,51,28,30.40,29.88,32,5,32,0.00
2013-4-7,56,42,26,43,31,23,96,68,33,30.40,30.10,24,5,28,0.00
2013-4-8,64,51,43,48,42,36,92,73,44,30.18,30.02,22,4,23,0.00
2013-4-9,69,51,41,55,45,37,96,81,57,30.16,29.90,18,4,23,0.10
2013-4-10,54,47,42,48,43,41,96,86,71,30.06,29.92,15,3,15,0.25
2013-4-11,51,45,43,45,41,37,97,88,71,30.19,29.84,18,3,18,0.03
2013-4-12,43,42,38,42,37,32,97,84,66,30.21,29.68,29,6,29,0.75
2013-4-13,46,41,37,42,39,35,97,91,78,30.00,29.69,29,4,29,0.06
2013-4-14,56,46,39,47,38,32,97,77,51,30.23,29.97,14,3,15,0.00
2013-4-15,54,45,35,41,37,32,94,77,55,30.48,30.23,14,3,14,0.00
2013-4-16,64,49,35,48,42,34,98,77,48,30.48,30.16,25,5,25,0.00
2013-4-17,63,52,40,50,42,33,95,72,41,30.38,30.12,21,4,22,0.03
2013-4-18,60,48,37,46,38,34,92,71,43,30.48,30.23,20,4,20,0.00
2013-4-19,71,61,50,63,58,46,95,88,75,30.23,29.81,42,8,42,0.00
2013-4-20,65,54,43,63,50,37,96,88,73,30.22,29.73,41,6,41,0.25
2013-4-21,50,42,33,37,29,26,83,60,44,30.72,30.22,20,4,20,0.00
2013-4-22,54,42,31,41,34,27,93,73,48,30.79,30.61,24,5,24,0.00
2013-4-23,45,43,41,43,41,36,97,93,80,30.61,30.02,25,7,25,0.90
2013-4-24,58,48,43,53,46,43,97,93,80,30.02,29.83,27,6,30,0.38
2013-4-25,61,52,42,53,46,38,96,79,46,30.29,29.94,26,4,26,0.01
2013-4-26,57,47,38,44,41,36,97,81,58,30.47,30.29,19,3,19,0.00
2013-4-27,61,49,35,46,37,33,98,68,36,30.47,30.38,12,2,14,0.00
2013-4-28,66,52,37,49,40,34,97,68,36,30.41,30.32,12,2,12,0.00
2013-4-29,70,54,41,50,41,29,97,67,22,30.35,30.29,14,2,14,0.00
2013-4-30,66,50,36,44,35,26,97,62,24,30.42,30.31,13,2,14,0.00
2013-5-1,60,49,40,49,44,38,97,82,63,30.53,30.41,14,2,14,0.00
2013-5-2,72,51,38,53,42,35,98,77,27,30.51,30.44,19,3,20,0.00
2013-5-3,53,46,38,46,42,36,97,85,74,30.53,30.41,24,5,25,0.00
2013-5-4,55,47,41,44,41,39,96,80,60,30.41,30.35,25,6,25,0.00
2013-5-5,57,48,38,46,42,36,92,81,64,30.36,30.32,18,4,18,0.00
2013-5-6,58,48,38,48,44,35,96,87,68,30.34,30.23,14,2,14,0.00
2013-5-7,77,59,48,61,53,46,97,82,56,30.25,30.18,16,2,18,0.00
2013-5-8,74,60,53,63,56,51,98,88,67,30.27,30.11,17,4,21,0.21
2013-5-9,73,61,54,66,57,53,98,90,71,30.11,29.94,14,3,14,0.03
2013-5-10,73,62,54,61,56,53,98,83,60,30.01,29.93,12,3,14,0.00
2013-5-11,67,61,57,62,58,54,97,90,76,30.00,29.78,22,5,23,0.46
2013-5-12,63,60,53,62,56,40,98,89,59,29.84,29.64,19,5,19,0.20
2013-5-13,65,55,48,43,39,34,75,56,36,30.04,29.84,21,5,22,0.00
2013-5-14,58,52,48,43,38,34,75,60,44,30.07,30.00,22,4,22,0.00
2013-5-15,70,57,48,56,44,36,90,65,35,30.11,29.74,20,4,21,0.03
2013-5-16,81,64,54,56,52,48,94,68,36,29.81,29.69,14,2,14,0.00
2013-5-17,67,58,48,52,45,41,88,64,42,30.26,29.81,20,2,20,0.00
2013-5-18,74,58,47,54,49,44,94,74,38,30.36,30.26,13,2,13,0.00
2013-5-19,77,63,54,55,51,48,91,69,41,30.40,30.30,14,2,16,0.05
2013-5-20,77,65,56,68,61,54,97,88,69,30.30,29.98,14,2,14,0.47
2013-5-21,82,63,54,70,59,53,98,89,61,30.02,29.91,19,2,19,0.01
2013-5-22,66,58,52,60,55,51,98,92,76,30.01,29.93,15,2,15,0.00
2013-5-23,75,67,61,68,64,60,97,91,76,29.99,29.92,24,4,24,0.21
2013-5-24,66,63,55,65,63,54,98,97,94,29.92,29.74,23,3,26,1.41
2013-5-25,58,52,47,55,51,44,99,95,84,29.77,29.70,19,3,19,0.11
2013-5-26,58,50,43,50,44,41,93,82,67,30.11,29.74,19,4,19,0.02
2013-5-27,73,59,49,53,46,38,85,65,32,30.21,30.11,14,2,15,0.01
2013-5-28,73,60,46,57,50,44,96,71,39,30.29,30.21,11,1,12,0.00
2013-5-29,65,60,57,63,59,55,98,94,89,30.27,30.05,16,2,16,0.57
2013-5-30,89,71,61,73,65,59,98,83,55,30.12,30.06,10,2,12,0.07
2013-5-31,95,75,63,70,64,60,95,72,41,30.13,30.00,15,2,15,0.00
2013-6-1,91,74,65,71,65,62,90,75,51,30.04,29.95,18,3,18,0.00
2013-6-2,84,72,65,69,65,62,92,81,59,29.98,29.86,21,4,21,0.01
2013-6-3,67,65,63,66,64,63,98,97,93,29.90,29.83,20,3,20,2.59
2013-6-4,72,62,51,63,51,45,98,69,42,30.11,29.83,16,2,16,0.00
2013-6-5,73,60,47,55,49,44,97,70,39,30.23,30.11,12,1,12,0.00
2013-6-6,77,63,55,58,53,49,90,72,43,30.25,30.14,8,1,8,0.00
2013-6-7,67,57,55,66,55,52,99,94,84,30.15,29.80,18,2,19,1.23
2013-6-8,73,66,58,68,63,57,99,93,75,30.03,29.60,19,3,21,0.34
2013-6-9,81,69,58,65,60,57,98,76,46,30.19,30.03,10,1,11,0.00
2013-6-10,71,62,57,60,58,56,96,86,66,30.24,30.06,11,1,11,0.34
2013-6-11,71,61,55,69,60,54,99,95,79,30.06,29.57,16,2,16,1.32
2013-6-12,70,61,54,64,57,53,98,88,69,29.82,29.59,25,3,25,0.02
2013-6-13,64,58,54,57,54,52,96,87,69,29.85,29.67,16,1,16,0.09
2013-6-14,62,56,52,56,53,51,97,91,80,29.79,29.60,24,4,24,0.90
2013-6-15,77,64,52,57,51,42,98,67,32,29.99,29.77,14,1,14,0.00
2013-6-16,82,67,58,63,59,54,95,77,44,29.99,29.79,20,2,20,0.00
2013-6-17,87,72,63,69,64,60,92,77,53,29.95,29.81,16,2,16,0.00
2013-6-18,78,66,60,66,61,58,96,86,63,29.98,29.90,15,2,15,0.03
2013-6-19,71,62,55,59,54,49,95,77,57,30.19,29.89,20,3,20,0.02
2013-6-20,82,67,53,60,55,51,96,68,37,30.32,30.19,16,2,16,0.00
2013-6-21,82,70,61,62,57,52,78,63,48,30.32,30.26,14,3,15,0.00
2013-6-22,82,71,64,64,60,54,91,69,44,30.29,30.20,13,3,14,0.00
2013-6-23,86,74,66,70,67,63,93,79,57,30.22,30.08,15,3,16,0.00
2013-6-24,92,78,69,76,70,66,95,79,58,30.08,29.91,17,2,17,0.00
2013-6-25,92,78,69,72,69,65,90,76,50,29.94,29.78,16,2,16,0.00
2013-6-26,89,76,67,73,69,65,94,80,53,29.88,29.76,11,2,11,0.01
2013-6-27,73,67,63,67,64,62,97,91,79,29.90,29.80,10,1,10,0.00
2013-6-28,72,70,65,71,69,64,98,97,94,29.80,29.60,23,3,24,0.39
2013-6-29,74,70,68,72,70,67,99,97,92,29.80,29.60,17,3,18,1.10
2013-6-30,76,72,69,72,70,68,98,94,84,30.02,29.80,15,2,15,0.05
2013-7-1,78,72,69,75,71,68,99,96,88,30.16,30.01,11,2,18,0.35
2013-7-2,85,75,70,77,72,69,98,91,76,30.25,30.15,13,3,14,0.00
2013-7-3,89,77,71,76,72,69,97,85,63,30.26,30.20,13,3,15,0.00
2013-7-4,92,80,72,79,74,71,96,83,62,30.25,30.15,15,3,15,0.00
2013-7-5,96,81,72,80,73,69,95,79,57,30.20,30.09,13,2,16,0.00
2013-7-6,95,82,73,79,74,70,93,79,56,30.12,30.00,8,2,9,0.00
2013-7-7,94,81,72,75,72,68,93,76,52,30.05,29.95,10,2,10,0.00
2013-7-8,92,79,69,76,72,67,95,81,54,30.08,29.96,11,2,12,0.00
2013-7-9,74,70,68,71,68,65,97,91,84,30.13,30.06,7,1,7,0.00
2013-7-10,85,76,69,76,72,67,98,88,70,30.11,29.87,18,2,18,0.00
2013-7-11,78,75,72,75,73,71,95,93,88,29.94,29.84,13,2,18,0.07
2013-7-12,72,69,66,71,66,62,98,92,80,30.22,29.94,16,2,17,0.00
2013-7-13,82,70,66,73,68,65,98,92,73,30.34,30.21,9,1,9,0.01
2013-7-14,91,78,70,77,73,69,97,85,60,30.33,30.23,9,1,9,0.00
2013-7-15,92,80,71,78,72,68,98,79,52,30.23,30.13,7,1,9,0.00
2013-7-16,90,78,69,72,69,65,93,76,53,30.20,30.10,14,1,14,0.00
2013-7-17,91,78,67,72,68,65,95,75,46,30.22,30.07,11,1,11,0.00
2013-7-18,89,79,74,76,72,69,89,78,58,30.07,29.99,17,2,17,0.00
2013-7-19,97,84,75,81,76,71,94,80,57,29.99,29.79,23,6,23,0.00
2013-7-20,94,83,76,79,76,73,92,80,56,29.82,29.70,21,6,23,0.01
2013-7-21,79,73,67,74,68,65,93,84,68,30.04,29.82,13,2,14,0.01
2013-7-22,79,71,66,70,67,64,97,89,73,30.05,29.92,10,2,13,0.00
2013-7-23,90,77,69,78,73,68,97,87,65,29.92,29.59,23,3,23,0.00
2013-7-24,92,80,69,76,72,66,95,79,49,29.92,29.61,14,2,14,0.13
2013-7-25,69,66,64,67,61,58,96,86,79,30.08,29.92,25,6,27,0.12
2013-7-26,66,65,64,65,64,63,98,98,96,30.04,29.88,25,5,25,1.55
2013-7-27,85,72,64,74,68,64,99,88,61,30.10,30.04,15,3,16,0.01
2013-7-28,79,72,67,75,69,65,99,93,81,30.08,29.98,10,2,10,0.13
2013-7-29,85,74,66,75,70,65,99,89,69,30.08,30.02,12,2,14,0.00
2013-7-30,83,73,66,71,66,60,96,80,49,30.12,30.04,13,2,13,0.00
2013-7-31,84,72,64,68,64,60,97,76,47,30.15,30.09,9,2,9,0.00
2013-8-1,84,73,64,70,65,61,97,79,49,30.10,29.94,13,2,17,0.13
2013-8-2,82,72,65,74,68,64,98,88,66,29.94,29.83,16,3,19,0.09
2013-8-3,75,72,70,69,68,66,92,87,80,29.92,29.83,20,5,22,0.01
2013-8-4,83,70,59,67,62,57,97,77,49,29.89,29.81,20,2,21,0.13
2013-8-5,76,65,57,60,56,48,97,74,41,30.07,29.88,21,3,21,0.01
2013-8-6,78,64,53,59,55,51,98,75,47,30.21,30.07,8,2,13,0.00
2013-8-7,80,66,55,64,56,51,98,75,43,30.24,30.18,11,2,11,0.00
2013-8-8,87,72,59,73,66,56,95,83,58,30.19,30.08,17,4,19,0.00
2013-8-9,76,73,68,73,71,66,98,93,87,30.11,29.82,26,6,29,0.66
2013-8-10,86,75,65,72,68,62,98,82,52,30.02,29.82,20,4,20,0.01
2013-8-11,82,68,58,62,58,52,96,73,38,30.11,30.02,11,2,12,0.00
2013-8-12,83,72,65,70,67,62,96,83,61,30.07,29.97,17,3,17,0.00
2013-8-13,74,69,65,70,67,63,97,93,84,29.97,29.70,10,1,10,0.02
2013-8-14,80,70,65,66,61,55,97,74,48,29.96,29.69,20,4,22,0.01
2013-8-15,81,68,59,60,55,50,86,65,35,30.16,29.96,17,3,20,0.00
2013-8-16,84,71,60,62,59,53,91,68,39,30.24,30.14,17,3,17,0.00
2013-8-17,77,68,62,65,61,58,92,79,60,30.31,30.23,11,2,12,0.00
2013-8-18,78,67,60,67,62,58,98,83,59,30.31,30.12,8,1,8,0.07
2013-8-19,82,70,58,68,63,56,97,82,57,30.12,29.98,12,3,12,0.00
2013-8-20,86,74,66,70,66,60,93,76,46,30.13,30.01,10,2,10,0.00
2013-8-21,90,75,65,70,67,63,96,78,47,30.18,30.07,14,2,15,0.00
2013-8-22,84,75,69,74,70,67,94,84,70,30.08,29.87,21,5,21,0.00
2013-8-23,74,70,62,70,64,59,94,81,66,30.12,29.84,27,4,27,0.00
2013-8-24,73,64,52,60,55,49,90,74,47,30.36,30.12,22,4,25,0.00
2013-8-25,81,67,52,64,57,49,95,73,37,30.39,30.25,15,2,15,0.00
2013-8-26,81,72,67,68,65,60,89,79,62,30.25,29.93,21,6,21,0.00
2013-8-27,72,70,66,71,68,65,97,94,89,29.93,29.87,9,2,10,0.06
2013-8-28,69,66,64,66,64,63,98,95,90,29.98,29.89,11,2,11,0.00
2013-8-29,68,64,61,65,62,58,97,93,85,30.07,29.97,18,5,19,0.01
2013-8-30,78,68,60,68,63,58,95,87,71,30.04,29.89,15,3,15,0.00
2013-8-31,79,72,69,73,69,67,96,91,80,29.90,29.86,18,5,18,0.00
2013-9-1,80,73,69,75,71,67,97,93,85,29.94,29.86,18,4,20,0.04
2013-9-2,86,75,69,75,72,68,98,90,68,29.93,29.77,18,3,18,0.00
2013-9-3,85,73,67,75,70,65,98,90,71,29.84,29.73,17,3,17,1.90
2013-9-4,80,69,62,67,64,61,98,85,60,29.96,29.82,16,4,18,0.03
2013-9-5,70,63,52,66,60,50,97,89,78,30.15,29.91,17,2,19,0.08
2013-9-6,69,58,51,52,50,46,97,77,46,30.26,30.14,13,2,13,0.00
2013-9-7,77,65,53,61,56,49,88,73,52,30.14,29.91,19,5,19,0.00
2013-9-8,76,66,58,65,58,44,90,76,59,30.10,29.77,18,4,20,0.00
2013-9-9,69,60,49,55,48,42,89,66,42,30.27,30.10,15,3,16,0.00
2013-9-10,73,66,59,66,61,55,90,82,69,30.23,30.10,22,5,22,0.00
2013-9-11,88,75,69,76,70,66,95,87,67,30.15,30.02,19,5,19,0.00
2013-9-12,83,74,70,74,70,68,95,88,72,30.04,29.75,22,6,22,0.00
2013-9-13,73,70,63,70,68,60,97,93,86,29.75,29.61,22,2,22,0.12
2013-9-14,72,63,57,62,58,53,93,84,65,30.07,29.75,12,2,12,0.00
2013-9-15,72,60,50,58,53,49,98,79,57,30.19,30.07,17,3,17,0.00
2013-9-16,64,61,53,60,57,50,92,86,73,30.22,30.05,22,3,22,0.06
2013-9-17,58,52,43,50,44,40,92,73,57,30.42,30.21,24,5,24,0.01
2013-9-18,71,56,43,55,48,41,98,77,40,30.36,30.18,15,2,15,0.00
2013-9-19,75,62,55,59,56,52,92,80,47,30.18,30.08,16,2,16,0.00
2013-9-20,77,64,57,63,58,54,97,82,51,30.13,30.05,9,2,10,0.00
2013-9-21,78,65,55,66,60,54,98,85,61,30.09,29.83,21,3,22,0.00
2013-9-22,70,66,57,67,62,49,96,88,75,29.83,29.70,22,3,26,0.10
2013-9-23,61,55,50,50,46,44,83,74,60,30.01,29.82,17,4,19,0.00
2013-9-24,61,53,46,49,46,43,92,79,57,30.00,29.86,22,3,22,0.00
2013-9-25,61,53,45,52,48,43,97,83,64,30.00,29.90,15,2,15,0.00
2013-9-26,60,56,50,52,50,47,95,82,69,30.13,29.99,17,3,17,0.00
2013-9-27,62,58,48,55,53,46,94,84,77,30.28,30.12,18,4,19,0.01
2013-9-28,67,55,46,59,51,44,98,87,68,30.34,30.27,15,2,15,0.00
2013-9-29,64,55,45,57,52,43,97,89,76,30.30,30.13,14,2,14,0.00
2013-9-30,64,59,55,58,56,53,97,91,80,30.13,29.98,15,3,15,0.00
2013-10-1,69,60,53,57,53,49,97,80,52,29.98,29.89,15,2,15,0.00
2013-10-2,77,65,57,65,60,56,97,84,63,29.97,29.85,14,3,14,0.00
2013-10-3,75,64,56,60,56,49,96,77,41,30.11,29.97,12,2,12,0.00
2013-10-4,71,59,53,62,57,51,97,92,72,30.11,30.06,8,1,8,0.24
2013-10-5,65,61,58,61,59,56,98,93,83,30.16,30.08,10,2,10,0.00
2013-10-6,61,59,57,59,57,54,97,94,87,30.25,30.14,14,3,15,0.04
2013-10-7,75,68,61,70,65,59,97,91,81,30.17,29.90,22,5,24,0.00
2013-10-8,67,58,50,65,52,46,95,82,61,30.38,29.91,19,3,20,0.11
2013-10-9,60,56,52,49,46,44,84,71,64,30.47,30.38,23,5,24,0.00
2013-10-10,62,58,54,57,54,47,95,88,78,30.38,30.17,16,4,16,0.00
2013-10-11,63,59,54,59,56,51,96,91,85,30.17,30.12,20,5,20,0.00
2013-10-12,61,58,54,58,54,49,94,88,83,30.40,30.15,24,6,24,0.00
2013-10-13,59,54,42,50,47,39,91,79,65,30.46,30.38,18,4,18,0.00
2013-10-14,59,48,38,50,44,36,98,87,68,30.43,30.31,11,1,13,0.00
2013-10-15,61,52,42,54,48,41,98,89,65,30.31,30.21,11,1,11,0.00
2013-10-16,60,57,50,59,55,49,97,96,91,30.21,29.94,15,3,15,0.02
2013-10-17,68,60,56,63,58,55,98,93,81,29.94,29.79,14,3,14,0.00
2013-10-18,67,62,55,62,57,50,97,84,61,29.94,29.68,16,4,16,0.03
2013-10-19,63,56,49,52,48,43,91,75,52,30.03,29.80,12,2,14,0.00
2013-10-20,61,55,45,56,48,39,96,76,52,30.05,29.74,23,4,26,0.01
2013-10-21,63,53,44,48,44,40,93,74,48,30.16,30.05,11,2,11,0.00
2013-10-22,66,57,48,56,52,44,97,84,69,30.07,29.74,16,3,16,0.00
2013-10-23,53,48,40,45,41,37,95,80,62,29.82,29.62,8,1,9,0.16
2013-10-24,52,48,43,44,38,30,96,70,50,29.92,29.65,22,6,22,0.01
2013-10-25,50,46,42,39,35,31,82,65,57,30.19,29.92,22,4,22,0.00
2013-10-26,56,47,37,45,38,31,84,72,56,30.20,29.93,27,5,27,0.00
2013-10-27,55,52,46,46,40,34,86,65,53,30.09,29.86,21,5,23,0.02
2013-10-28,57,50,41,44,38,32,82,65,51,30.36,30.09,19,4,19,0.00
2013-10-29,49,42,32,39,35,29,91,75,59,30.44,30.35,10,2,15,0.00
2013-10-30,50,42,31,47,39,29,96,92,75,30.41,30.24,11,1,11,0.09
2013-10-31,64,54,39,60,51,38,98,90,75,30.29,29.92,29,4,29,0.00
2013-11-1,68,63,59,65,60,56,96,92,87,29.92,29.57,39,9,39,0.09
2013-11-2,60,56,51,56,53,49,96,91,80,29.75,29.63,12,1,12,0.02
2013-11-3,54,46,42,52,40,30,95,79,61,30.38,29.72,27,6,27,0.01
2013-11-4,42,40,38,31,29,26,73,64,56,30.72,30.38,22,4,22,0.00
2013-11-5,48,41,34,38,34,31,93,78,60,30.73,30.57,9,1,9,0.00
2013-11-6,56,48,37,52,44,35,95,88,70,30.58,30.13,17,3,17,0.00
2013-11-7,63,56,44,61,54,39,97,94,81,30.13,29.71,28,5,28,0.19
2013-11-8,48,44,40,40,34,27,85,69,56,30.10,29.82,31,6,31,0.08
2013-11-9,45,42,38,37,30,27,81,63,52,30.22,30.10,22,6,24,0.04
2013-11-10,54,48,41,51,43,35,96,83,73,30.12,29.76,25,4,25,0.05
2013-11-11,51,46,42,46,37,32,83,70,58,30.11,29.87,26,7,27,0.03
2013-11-12,52,39,32,46,34,24,94,83,65,30.19,29.91,22,4,22,0.03
2013-11-13,36,33,30,27,24,21,80,69,57,30.28,30.18,19,5,19,0.02
2013-11-14,48,42,34,39,32,23,79,67,49,30.23,30.09,25,5,29,0.32
2013-11-15,55,48,43,47,41,34,94,77,58,30.26,30.18,19,4,19,0.02
2013-11-16,52,45,37,45,40,34,94,84,62,30.37,30.24,10,2,11,0.02
2013-11-17,59,49,36,58,46,34,98,91,65,30.37,29.94,17,3,19,0.01
2013-11-18,62,56,48,62,54,43,98,92,77,29.94,29.62,36,5,36,0.01
2013-11-19,50,41,35,43,30,24,80,64,55,30.27,29.69,20,4,22,0.02
2013-11-20,40,35,30,27,25,23,81,66,53,30.63,30.27,18,2,18,0.01
2013-11-21,46,36,28,37,31,25,94,80,64,30.66,30.44,8,0,8,0.38
2013-11-22,50,45,39,49,44,36,97,95,90,30.44,29.86,9,1,10,0.13
2013-11-23,48,43,34,47,33,19,98,69,46,29.90,29.80,25,4,25,0.02
2013-11-24,34,28,25,22,14,7,89,57,43,30.03,29.79,28,7,28,0.00
2013-11-25,32,28,24,26,15,7,78,57,38,30.41,30.03,23,4,27,0.00
2013-11-26,48,41,31,47,36,24,97,81,68,30.38,30.11,10,1,11,0.26
2013-11-27,61,54,42,60,53,40,98,97,93,30.11,29.17,31,5,31,0.30
2013-11-28,42,35,29,40,25,16,93,69,55,30.47,29.47,19,4,23,0.05
2013-11-29,34,30,26,23,19,14,71,62,54,30.74,30.46,15,2,16,0.00
2013-11-30,35,29,24,25,21,16,87,72,55,30.80,30.52,12,1,12,0.00
2013-12-1,49,43,28,48,39,25,96,87,70,30.52,30.00,12,2,14,0.61
2013-12-2,48,43,40,47,42,38,97,95,90,30.01,29.93,7,1,8,0.00
2013-12-3,45,42,37,43,40,34,95,92,88,29.95,29.84,13,1,13,0.00
2013-12-4,42,38,30,36,33,28,93,83,68,30.25,29.95,14,2,16,0.00
2013-12-5,55,45,30,54,43,28,98,94,88,30.27,29.99,22,4,22,0.00
2013-12-6,55,49,39,54,48,38,98,96,90,30.17,29.92,19,3,19,0.18
2013-12-7,40,37,32,38,33,22,97,86,64,30.47,30.07,20,3,20,0.39
2013-12-8,34,31,28,26,24,22,83,73,61,30.62,30.47,13,2,13,0.00
2013-12-9,47,40,33,46,38,25,98,94,71,30.52,29.88,26,5,26,0.32
2013-12-10,39,35,30,37,32,20,96,89,63,30.02,29.81,37,5,38,0.05
2013-12-11,33,31,29,24,22,19,80,69,61,30.28,30.02,37,8,37,0.00
2013-12-12,31,26,22,22,14,8,77,61,50,30.29,30.14,21,5,22,0.00
2013-12-13,31,28,23,22,17,12,73,63,54,30.37,30.04,26,7,27,0.00
2013-12-14,32,25,21,31,19,12,95,78,66,30.61,30.20,25,5,29,0.00
2013-12-15,51,36,28,51,34,24,98,93,76,30.20,29.32,34,8,34,1.36
2013-12-16,33,29,25,28,18,10,83,63,48,30.24,29.79,27,8,27,0.00
2013-12-17,42,28,15,41,23,10,97,79,54,30.31,29.84,25,3,28,0.21
2013-12-18,38,34,31,37,30,25,97,87,73,30.13,29.75,23,6,25,0.06
2013-12-19,43,36,32,36,31,26,88,81,75,30.17,30.01,21,5,21,0.00
2013-12-20,50,41,32,46,37,29,93,86,75,30.19,30.00,21,4,22,0.00
2013-12-21,53,49,42,50,47,41,97,93,85,30.05,29.96,22,6,22,0.00
2013-12-22,57,51,44,57,50,43,98,97,93,30.06,29.88,34,7,34,0.00
2013-12-23,46,44,40,46,43,39,98,97,96,30.09,29.96,18,1,18,0.40
2013-12-24,41,36,30,40,33,22,98,91,72,30.20,30.03,17,3,18,0.21
2013-12-25,31,25,20,24,19,12,89,79,66,30.59,30.20,22,4,23,0.00
2013-12-26,41,32,22,36,29,20,96,89,74,30.55,30.08,26,3,26,0.19
2013-12-27,36,33,31,28,27,24,88,77,66,30.31,30.22,21,6,23,0.01
2013-12-28,45,38,33,38,33,27,93,82,71,30.28,30.05,22,5,22,0.00
2013-12-29,53,42,37,53,41,35,98,94,86,30.09,29.31,27,4,30,0.67
2013-12-30,44,37,26,43,32,18,97,83,62,30.18,29.41,27,5,30,0.03
2013-12-31,28,26,24,25,20,16,93,78,62,30.20,30.07,24,4,37,0.00
2014-1-1,29,24,19,19,15,12,86,68,58,30.42,30.20,29,5,29,0.00
2014-1-2,32,28,22,30,26,18,95,91,81,30.40,29.71,32,7,32,0.00